sensor_id;sensor_type;location;lat;lon;timestamp;pressure;altitude;pressure_sealevel;temperature;humidity
41830;BME280;38614;43.472;23.936;2022-07-10T00:00:30;99913.19;;;17.42;nan
41830;BME280;38614;43.472;23.936;2022-07-10T00:03:18;99902.00;;;17.42;nan
41830;BME280;38614;43.472;23.936;2022-07-10T00:06:05;99876.25;;;17.16;nan
41830;BME280;38614;43.472;23.936;2022-07-10T00:08:54;99907.25;;;17.32;nan
41830;BME280;38614;43.472;23.936;2022-07-10T00:11:42;99907.66;;;17.31;nan
41830;BME280;38614;43.472;23.936;2022-07-10T00:14:30;99910.84;;;17.29;nan
41830;BME280;38614;43.472;23.936;2022-07-10T00:17:18;99904.47;;;17.32;nan
41830;BME280;38614;43.472;23.936;2022-07-10T00:20:07;99893.75;;;17.24;nan
41830;BME280;38614;43.472;23.936;2022-07-10T00:22:54;99861.25;;;16.96;nan
41830;BME280;38614;43.472;23.936;2022-07-10T00:25:47;99895.03;;;17.12;nan
41830;BME280;38614;43.472;23.936;2022-07-10T00:28:35;99838.66;;;16.72;nan
41830;BME280;38614;43.472;23.936;2022-07-10T00:31:24;99892.25;;;17.08;nan
41830;BME280;38614;43.472;23.936;2022-07-10T00:34:12;99861.66;;;16.94;nan
41830;BME280;38614;43.472;23.936;2022-07-10T00:37:00;99881.13;;;17.01;nan
41830;BME280;38614;43.472;23.936;2022-07-10T00:39:48;99886.25;;;17.10;nan
41830;BME280;38614;43.472;23.936;2022-07-10T00:42:36;99871.22;;;16.97;nan
41830;BME280;38614;43.472;23.936;2022-07-10T00:45:24;99847.84;;;16.73;nan
41830;BME280;38614;43.472;23.936;2022-07-10T00:48:12;99851.81;;;16.75;nan
41830;BME280;38614;43.472;23.936;2022-07-10T00:50:59;99891.53;;;16.97;nan
41830;BME280;38614;43.472;23.936;2022-07-10T00:53:50;99874.44;;;16.92;nan
41830;BME280;38614;43.472;23.936;2022-07-10T00:56:38;99882.38;;;16.97;nan
41830;BME280;38614;43.472;23.936;2022-07-10T00:59:26;99875.97;;;17.00;nan
41830;BME280;38614;43.472;23.936;2022-07-10T01:02:15;99877.22;;;16.92;nan
41830;BME280;38614;43.472;23.936;2022-07-10T01:05:03;99854.13;;;16.84;nan
41830;BME280;38614;43.472;23.936;2022-07-10T01:07:51;99849.03;;;16.72;nan
41830;BME280;38614;43.472;23.936;2022-07-10T01:10:39;99870.88;;;16.88;nan
41830;BME280;38614;43.472;23.936;2022-07-10T01:13:27;99868.91;;;16.85;nan
41830;BME280;38614;43.472;23.936;2022-07-10T01:16:15;99874.88;;;16.83;nan
41830;BME280;38614;43.472;23.936;2022-07-10T01:19:03;99864.94;;;16.75;nan
41830;BME280;38614;43.472;23.936;2022-07-10T01:21:50;99873.34;;;16.71;nan
41830;BME280;38614;43.472;23.936;2022-07-10T01:24:38;99859.81;;;16.63;nan
41830;BME280;38614;43.472;23.936;2022-07-10T01:27:26;99862.66;;;16.59;nan
41830;BME280;38614;43.472;23.936;2022-07-10T01:30:13;99864.56;;;16.66;nan
41830;BME280;38614;43.472;23.936;2022-07-10T01:33:01;99863.38;;;16.74;nan
41830;BME280;38614;43.472;23.936;2022-07-10T01:35:48;99861.41;;;16.64;nan
41830;BME280;38614;43.472;23.936;2022-07-10T01:38:36;99840.75;;;16.58;nan
41830;BME280;38614;43.472;23.936;2022-07-10T01:41:25;99868.97;;;16.67;nan
41830;BME280;38614;43.472;23.936;2022-07-10T01:44:12;99866.22;;;16.60;nan
41830;BME280;38614;43.472;23.936;2022-07-10T01:47:00;99827.28;;;16.35;nan
41830;BME280;38614;43.472;23.936;2022-07-10T01:49:48;99847.16;;;16.44;nan
41830;BME280;38614;43.472;23.936;2022-07-10T01:52:35;99815.78;;;16.25;nan
41830;BME280;38614;43.472;23.936;2022-07-10T01:55:23;99859.06;;;16.55;nan
41830;BME280;38614;43.472;23.936;2022-07-10T01:58:11;99854.69;;;16.54;nan
41830;BME280;38614;43.472;23.936;2022-07-10T02:00:59;99852.28;;;16.56;nan
41830;BME280;38614;43.472;23.936;2022-07-10T02:03:46;99838.78;;;16.51;nan
41830;BME280;38614;43.472;23.936;2022-07-10T02:06:53;99835.97;;;16.51;nan
41830;BME280;38614;43.472;23.936;2022-07-10T02:09:41;99837.97;;;16.50;nan
41830;BME280;38614;43.472;23.936;2022-07-10T02:12:29;99860.22;;;16.68;nan
41830;BME280;38614;43.472;23.936;2022-07-10T02:15:17;99853.47;;;16.59;nan
41830;BME280;38614;43.472;23.936;2022-07-10T02:18:04;99841.13;;;16.56;nan
41830;BME280;38614;43.472;23.936;2022-07-10T02:20:52;99817.78;;;16.25;nan
41830;BME280;38614;43.472;23.936;2022-07-10T02:23:40;99838.50;;;16.24;nan
41830;BME280;38614;43.472;23.936;2022-07-10T02:26:28;99835.75;;;16.13;nan
41830;BME280;38614;43.472;23.936;2022-07-10T02:29:16;99862.00;;;16.23;nan
41830;BME280;38614;43.472;23.936;2022-07-10T02:32:04;99824.25;;;16.04;nan
41830;BME280;38614;43.472;23.936;2022-07-10T02:34:52;99870.34;;;16.27;nan
41830;BME280;38614;43.472;23.936;2022-07-10T02:37:40;99840.53;;;16.09;nan
41830;BME280;38614;43.472;23.936;2022-07-10T02:40:28;99833.00;;;15.99;nan
41830;BME280;38614;43.472;23.936;2022-07-10T02:43:15;99850.53;;;16.03;nan
41830;BME280;38614;43.472;23.936;2022-07-10T02:46:04;99863.63;;;16.10;nan
41830;BME280;38614;43.472;23.936;2022-07-10T02:48:52;99863.66;;;16.06;nan
41830;BME280;38614;43.472;23.936;2022-07-10T02:51:40;99854.47;;;16.09;nan
41830;BME280;38614;43.472;23.936;2022-07-10T02:54:27;99858.47;;;16.12;nan
41830;BME280;38614;43.472;23.936;2022-07-10T02:57:15;99786.16;;;15.62;nan
41830;BME280;38614;43.472;23.936;2022-07-10T03:00:03;99860.06;;;16.13;nan
41830;BME280;38614;43.472;23.936;2022-07-10T03:02:51;99868.41;;;16.16;nan
41830;BME280;38614;43.472;23.936;2022-07-10T03:05:39;99861.63;;;16.21;nan
41830;BME280;38614;43.472;23.936;2022-07-10T03:08:27;99849.34;;;16.04;nan
41830;BME280;38614;43.472;23.936;2022-07-10T03:11:14;99862.03;;;16.19;nan
41830;BME280;38614;43.472;23.936;2022-07-10T03:14:02;99854.50;;;16.06;nan
41830;BME280;38614;43.472;23.936;2022-07-10T03:16:50;99851.72;;;16.06;nan
41830;BME280;38614;43.472;23.936;2022-07-10T03:19:37;99851.28;;;16.14;nan
41830;BME280;38614;43.472;23.936;2022-07-10T03:22:25;99858.47;;;16.12;nan
41830;BME280;38614;43.472;23.936;2022-07-10T03:25:13;99855.63;;;16.19;nan
41830;BME280;38614;43.472;23.936;2022-07-10T03:28:00;99860.84;;;16.20;nan
41830;BME280;38614;43.472;23.936;2022-07-10T03:30:48;99860.78;;;16.28;nan
41830;BME280;38614;43.472;23.936;2022-07-10T03:33:36;99850.44;;;16.32;nan
41830;BME280;38614;43.472;23.936;2022-07-10T03:36:24;99830.56;;;16.22;nan
41830;BME280;38614;43.472;23.936;2022-07-10T03:39:11;99856.34;;;16.44;nan
41830;BME280;38614;43.472;23.936;2022-07-10T03:41:59;99858.28;;;16.51;nan
41830;BME280;38614;43.472;23.936;2022-07-10T03:44:47;99854.25;;;16.63;nan
41830;BME280;38614;43.472;23.936;2022-07-10T03:47:34;99844.66;;;16.67;nan
41830;BME280;38614;43.472;23.936;2022-07-10T03:50:22;99851.75;;;16.86;nan
41830;BME280;38614;43.472;23.936;2022-07-10T03:53:10;99846.50;;;16.92;nan
41830;BME280;38614;43.472;23.936;2022-07-10T03:55:57;99825.81;;;16.89;nan
41830;BME280;38614;43.472;23.936;2022-07-10T03:58:45;99827.63;;;17.10;nan
41830;BME280;38614;43.472;23.936;2022-07-10T04:01:32;99822.44;;;17.12;nan
41830;BME280;38614;43.472;23.936;2022-07-10T04:04:20;99821.97;;;17.21;nan
41830;BME280;38614;43.472;23.936;2022-07-10T04:07:08;99840.44;;;17.52;nan
41830;BME280;38614;43.472;23.936;2022-07-10T04:09:56;99845.09;;;17.66;nan
41830;BME280;38614;43.472;23.936;2022-07-10T04:12:44;99826.75;;;17.65;nan
41830;BME280;38614;43.472;23.936;2022-07-10T04:15:32;99842.16;;;17.84;nan
41830;BME280;38614;43.472;23.936;2022-07-10T04:18:19;99834.44;;;17.95;nan
41830;BME280;38614;43.472;23.936;2022-07-10T04:21:07;99835.50;;;18.05;nan
41830;BME280;38614;43.472;23.936;2022-07-10T04:23:55;99820.66;;;18.11;nan
41830;BME280;38614;43.472;23.936;2022-07-10T04:26:43;99828.41;;;18.31;nan
41830;BME280;38614;43.472;23.936;2022-07-10T04:29:31;99792.81;;;18.35;nan
41830;BME280;38614;43.472;23.936;2022-07-10T04:32:19;99791.53;;;18.39;nan
41830;BME280;38614;43.472;23.936;2022-07-10T04:35:07;99826.28;;;18.72;nan
41830;BME280;38614;43.472;23.936;2022-07-10T04:37:55;99826.97;;;18.80;nan
41830;BME280;38614;43.472;23.936;2022-07-10T04:40:44;99834.81;;;18.89;nan
41830;BME280;38614;43.472;23.936;2022-07-10T04:43:32;99834.19;;;19.04;nan
41830;BME280;38614;43.472;23.936;2022-07-10T04:46:20;99815.69;;;19.11;nan
41830;BME280;38614;43.472;23.936;2022-07-10T04:49:07;99817.59;;;19.41;nan
41830;BME280;38614;43.472;23.936;2022-07-10T04:51:55;99837.09;;;19.48;nan
41830;BME280;38614;43.472;23.936;2022-07-10T04:54:49;99824.16;;;19.77;nan
41830;BME280;38614;43.472;23.936;2022-07-10T04:57:36;99824.72;;;19.88;nan
41830;BME280;38614;43.472;23.936;2022-07-10T05:00:34;99822.66;;;19.92;nan
41830;BME280;38614;43.472;23.936;2022-07-10T05:03:21;99814.38;;;20.05;nan
41830;BME280;38614;43.472;23.936;2022-07-10T05:06:09;99838.50;;;20.23;nan
41830;BME280;38614;43.472;23.936;2022-07-10T05:08:57;99829.06;;;20.33;nan
41830;BME280;38614;43.472;23.936;2022-07-10T05:11:49;99829.94;;;20.49;nan
41830;BME280;38614;43.472;23.936;2022-07-10T05:14:42;99839.59;;;20.65;nan
41830;BME280;38614;43.472;23.936;2022-07-10T05:17:30;99825.44;;;20.88;nan
41830;BME280;38614;43.472;23.936;2022-07-10T05:20:19;99836.69;;;21.04;nan
41830;BME280;38614;43.472;23.936;2022-07-10T05:23:07;99840.28;;;21.05;nan
41830;BME280;38614;43.472;23.936;2022-07-10T05:25:54;99836.88;;;21.30;nan
41830;BME280;38614;43.472;23.936;2022-07-10T05:28:42;99844.41;;;21.66;nan
41830;BME280;38614;43.472;23.936;2022-07-10T05:31:30;99818.44;;;21.45;nan
41830;BME280;38614;43.472;23.936;2022-07-10T05:34:19;99841.19;;;21.51;nan
41830;BME280;38614;43.472;23.936;2022-07-10T05:37:09;99848.47;;;22.10;nan
41830;BME280;38614;43.472;23.936;2022-07-10T05:39:57;99847.22;;;22.11;nan
41830;BME280;38614;43.472;23.936;2022-07-10T05:42:45;99815.44;;;21.98;nan
41830;BME280;38614;43.472;23.936;2022-07-10T05:45:33;99848.38;;;22.81;nan
41830;BME280;38614;43.472;23.936;2022-07-10T05:48:20;99851.34;;;23.02;nan
41830;BME280;38614;43.472;23.936;2022-07-10T05:51:08;99838.28;;;23.09;nan
41830;BME280;38614;43.472;23.936;2022-07-10T05:54:17;99830.59;;;22.96;nan
41830;BME280;38614;43.472;23.936;2022-07-10T05:57:14;99837.69;;;22.88;nan
41830;BME280;38614;43.472;23.936;2022-07-10T06:00:04;99831.38;;;23.22;nan
41830;BME280;38614;43.472;23.936;2022-07-10T06:02:57;99835.06;;;23.32;nan
41830;BME280;38614;43.472;23.936;2022-07-10T06:05:45;99834.72;;;23.43;nan
41830;BME280;38614;43.472;23.936;2022-07-10T06:08:33;99842.38;;;23.42;nan
41830;BME280;38614;43.472;23.936;2022-07-10T06:11:20;99832.63;;;23.69;nan
41830;BME280;38614;43.472;23.936;2022-07-10T06:14:08;99828.31;;;23.77;nan
41830;BME280;38614;43.472;23.936;2022-07-10T06:16:57;99836.63;;;23.93;nan
41830;BME280;38614;43.472;23.936;2022-07-10T06:19:45;99840.97;;;23.72;nan
41830;BME280;38614;43.472;23.936;2022-07-10T06:22:33;99847.13;;;23.45;nan
41830;BME280;38614;43.472;23.936;2022-07-10T06:25:21;99845.44;;;23.35;nan
41830;BME280;38614;43.472;23.936;2022-07-10T06:28:12;99830.16;;;23.11;nan
41830;BME280;38614;43.472;23.936;2022-07-10T06:31:00;99834.22;;;23.10;nan
41830;BME280;38614;43.472;23.936;2022-07-10T06:33:48;99849.88;;;22.98;nan
41830;BME280;38614;43.472;23.936;2022-07-10T06:36:36;99838.47;;;22.89;nan
41830;BME280;38614;43.472;23.936;2022-07-10T06:39:23;99857.63;;;23.07;nan
41830;BME280;38614;43.472;23.936;2022-07-10T06:42:23;99847.28;;;23.03;nan
41830;BME280;38614;43.472;23.936;2022-07-10T06:45:14;99851.06;;;23.60;nan
41830;BME280;38614;43.472;23.936;2022-07-10T06:48:02;99828.63;;;24.13;nan
41830;BME280;38614;43.472;23.936;2022-07-10T06:50:49;99839.69;;;24.08;nan
41830;BME280;38614;43.472;23.936;2022-07-10T06:53:37;99825.84;;;23.79;nan
41830;BME280;38614;43.472;23.936;2022-07-10T06:56:25;99850.44;;;24.00;nan
41830;BME280;38614;43.472;23.936;2022-07-10T06:59:13;99833.25;;;23.85;nan
41830;BME280;38614;43.472;23.936;2022-07-10T07:02:01;99837.75;;;23.61;nan
41830;BME280;38614;43.472;23.936;2022-07-10T07:04:49;99818.25;;;23.41;nan
41830;BME280;38614;43.472;23.936;2022-07-10T07:07:37;99835.53;;;23.78;nan
41830;BME280;38614;43.472;23.936;2022-07-10T07:10:28;99808.16;;;23.53;nan
41830;BME280;38614;43.472;23.936;2022-07-10T07:13:15;99833.78;;;23.93;nan
41830;BME280;38614;43.472;23.936;2022-07-10T07:16:09;99826.06;;;23.72;nan
41830;BME280;38614;43.472;23.936;2022-07-10T07:18:57;99826.63;;;23.79;nan
41830;BME280;38614;43.472;23.936;2022-07-10T07:21:51;99824.44;;;24.40;nan
41830;BME280;38614;43.472;23.936;2022-07-10T07:24:57;99830.28;;;24.77;nan
41830;BME280;38614;43.472;23.936;2022-07-10T07:27:45;99825.44;;;25.26;nan
41830;BME280;38614;43.472;23.936;2022-07-10T07:30:35;99818.25;;;25.35;nan
41830;BME280;38614;43.472;23.936;2022-07-10T07:33:23;99816.50;;;25.37;nan
41830;BME280;38614;43.472;23.936;2022-07-10T07:36:11;99822.91;;;25.19;nan
41830;BME280;38614;43.472;23.936;2022-07-10T07:38:59;99824.41;;;25.70;nan
41830;BME280;38614;43.472;23.936;2022-07-10T07:41:52;99806.19;;;25.98;nan
41830;BME280;38614;43.472;23.936;2022-07-10T07:44:40;99813.44;;;25.81;nan
41830;BME280;38614;43.472;23.936;2022-07-10T07:47:27;99791.09;;;25.83;nan
41830;BME280;38614;43.472;23.936;2022-07-10T07:50:21;99797.75;;;26.59;nan
41830;BME280;38614;43.472;23.936;2022-07-10T07:53:10;99810.66;;;26.51;nan
41830;BME280;38614;43.472;23.936;2022-07-10T07:55:59;99800.09;;;26.60;nan
41830;BME280;38614;43.472;23.936;2022-07-10T07:58:47;99791.81;;;26.29;nan
41830;BME280;38614;43.472;23.936;2022-07-10T08:01:34;99814.25;;;26.60;nan
41830;BME280;38614;43.472;23.936;2022-07-10T08:04:22;99810.50;;;26.96;nan
41830;BME280;38614;43.472;23.936;2022-07-10T08:07:10;99804.34;;;27.31;nan
41830;BME280;38614;43.472;23.936;2022-07-10T08:09:57;99792.88;;;26.92;nan
41830;BME280;38614;43.472;23.936;2022-07-10T08:12:46;99780.28;;;26.93;nan
41830;BME280;38614;43.472;23.936;2022-07-10T08:15:34;99748.53;;;26.80;nan
41830;BME280;38614;43.472;23.936;2022-07-10T08:18:24;99814.97;;;27.21;nan
41830;BME280;38614;43.472;23.936;2022-07-10T08:21:12;99809.59;;;27.23;nan
41830;BME280;38614;43.472;23.936;2022-07-10T08:24:00;99787.03;;;27.29;nan
41830;BME280;38614;43.472;23.936;2022-07-10T08:26:47;99804.16;;;27.59;nan
41830;BME280;38614;43.472;23.936;2022-07-10T08:29:35;99802.34;;;27.70;nan
41830;BME280;38614;43.472;23.936;2022-07-10T08:32:23;99801.03;;;27.33;nan
